Time;durP1;ratioP1;P1;durP2;ratioP2;P2;SDS_P1;SDS_P2;PMS_P1;PMS_P2;Temp;Humidity;BMP_temperature;BMP_pressure;BME280_temperature;BME280_humidity;BME280_pressure;Samples;Min_cycle;Max_cycle;Signal;HPM_P1;HPM_P2
2022/06/27 00:02:07;;;;;;;0.60;0.50;;;25.80;80.40;;;;;;5051796;28;20196;-63
2022/06/27 00:04:33;;;;;;;0.50;0.40;;;25.60;84.70;;;;;;5051901;28;20177;-63
2022/06/27 00:06:58;;;;;;;0.80;0.80;;;25.90;84.60;;;;;;5051860;28;20230;-63
2022/06/27 00:09:24;;;;;;;1.53;1.03;;;25.70;82.60;;;;;;5038958;28;20177;-63
2022/06/27 00:11:49;;;;;;;1.00;0.63;;;25.70;84.30;;;;;;5031749;28;20185;-63
2022/06/27 00:14:15;;;;;;;0.60;0.50;;;25.60;83.40;;;;;;5046325;28;20577;-63
2022/06/27 00:16:40;;;;;;;0.50;0.43;;;25.70;83.50;;;;;;5051624;28;20200;-63
2022/06/27 00:19:06;;;;;;;0.53;0.50;;;25.80;84.30;;;;;;5042264;28;20180;-63
2022/06/27 00:21:32;;;;;;;0.70;0.50;;;25.70;65.10;;;;;;5031537;28;20173;-63
2022/06/27 00:23:57;;;;;;;4.40;0.50;;;25.60;65.10;;;;;;5031427;28;20272;-63
2022/06/27 00:26:23;;;;;;;1.90;0.50;;;25.80;84.20;;;;;;5041559;28;20193;-63
2022/06/27 00:28:48;;;;;;;0.87;0.40;;;25.70;65.10;;;;;;5050883;28;20301;-63
2022/06/27 00:31:14;;;;;;;4.50;0.90;;;25.80;65.20;;;;;;5051527;28;20188;-63
2022/06/27 00:33:40;;;;;;;0.60;0.57;;;25.70;85.00;;;;;;5051280;28;20653;-63
2022/06/27 00:36:05;;;;;;;0.60;0.50;;;25.70;65.20;;;;;;5051412;28;20169;-63
2022/06/27 00:38:31;;;;;;;0.73;0.50;;;25.80;78.80;;;;;;5047383;28;20629;-63
2022/06/27 00:40:57;;;;;;;0.50;0.40;;;25.40;84.70;;;;;;5031698;28;20277;-63
2022/06/27 00:43:22;;;;;;;0.70;0.60;;;25.70;65.10;;;;;;5043051;28;20204;-63
2022/06/27 00:45:48;;;;;;;0.80;0.50;;;25.80;65.30;;;;;;5051710;28;20208;-63
2022/06/27 00:48:13;;;;;;;0.60;0.60;;;25.60;65.10;;;;;;5048797;28;20172;-63
2022/06/27 00:50:39;;;;;;;1.57;0.50;;;25.90;65.10;;;;;;5031654;28;20173;-63
2022/06/27 00:53:06;;;;;;;0.50;0.47;;;25.70;65.00;;;;;;5031962;28;20212;-63
2022/06/27 00:55:31;;;;;;;1.43;0.60;;;25.80;65.00;;;;;;5030288;28;20451;-63
2022/06/27 00:57:59;;;;;;;0.87;0.50;;;25.60;64.90;;;;;;5031077;28;20481;-63
2022/06/27 01:00:25;;;;;;;1.60;0.50;;;25.80;65.00;;;;;;5033505;28;20601;-63
2022/06/27 01:02:50;;;;;;;0.50;0.40;;;27.10;66.00;;;;;;5030962;28;20432;-63
2022/06/27 01:05:16;;;;;;;0.70;0.50;;;25.70;83.90;;;;;;5030753;28;20197;-63
2022/06/27 01:07:42;;;;;;;0.40;0.30;;;25.60;65.00;;;;;;5030859;28;20192;-63
2022/06/27 01:10:08;;;;;;;1.13;0.50;;;25.50;64.80;;;;;;5047603;28;20199;-63
2022/06/27 01:12:34;;;;;;;0.50;0.50;;;25.70;64.90;;;;;;5050847;28;20208;-63
2022/06/27 01:15:00;;;;;;;0.50;0.40;;;25.70;83.90;;;;;;5043379;28;20471;-63
2022/06/27 01:17:26;;;;;;;1.43;0.53;;;25.70;64.90;;;;;;5030907;28;20191;-63
2022/06/27 01:19:52;;;;;;;1.27;0.53;;;25.90;65.10;;;;;;5041736;28;20430;-63
2022/06/27 01:22:18;;;;;;;0.50;0.40;;;25.70;64.90;;;;;;5051004;28;20438;-63
2022/06/27 01:24:44;;;;;;;0.67;0.60;;;25.70;64.90;;;;;;5051452;28;20187;-63
2022/06/27 01:27:10;;;;;;;0.50;0.40;;;25.70;64.90;;;;;;5064619;28;20418;-63
2022/06/27 01:29:36;;;;;;;0.60;0.40;;;25.70;65.00;;;;;;5061152;28;20180;-63
2022/06/27 01:32:03;;;;;;;0.50;0.33;;;25.60;84.00;;;;;;5050622;28;20512;-63
2022/06/27 01:34:29;;;;;;;0.50;0.50;;;25.70;65.00;;;;;;5050406;28;20464;-63
2022/06/27 01:36:54;;;;;;;0.63;0.63;;;25.70;65.00;;;;;;5050472;28;20790;-63
2022/06/27 01:39:23;;;;;;;0.60;0.40;;;25.70;65.00;;;;;;5048497;28;20191;-63
2022/06/27 01:41:54;;;;;;;0.80;0.40;;;25.80;84.00;;;;;;5050087;28;20185;-63
2022/06/27 01:44:21;;;;;;;0.50;0.40;;;25.70;65.10;;;;;;5032902;28;20428;-63
2022/06/27 01:46:52;;;;;;;0.60;0.50;;;25.60;65.00;;;;;;5030349;28;20912;-63
2022/06/27 01:49:18;;;;;;;0.80;0.50;;;25.70;65.20;;;;;;5035944;28;20418;-63
2022/06/27 01:51:46;;;;;;;0.60;0.30;;;25.50;78.10;;;;;;5050001;28;20454;-63
2022/06/27 01:54:13;;;;;;;0.57;0.50;;;25.80;65.30;;;;;;5049769;28;20462;-63
2022/06/27 01:56:40;;;;;;;0.70;0.50;;;25.50;65.10;;;;;;5049990;28;20482;-63
2022/06/27 01:59:06;;;;;;;0.50;0.40;;;25.60;65.20;;;;;;5045744;28;20982;-63
2022/06/27 02:01:32;;;;;;;0.40;0.30;;;25.60;65.20;;;;;;5030255;28;20904;-63
2022/06/27 02:04:01;;;;;;;0.50;0.40;;;25.40;65.00;;;;;;5029971;28;20438;-63
2022/06/27 02:06:29;;;;;;;0.50;0.37;;;25.60;65.20;;;;;;5029684;28;20177;-63
2022/06/27 02:08:56;;;;;;;0.50;0.40;;;25.60;65.20;;;;;;5034686;28;20423;-63
2022/06/27 02:11:22;;;;;;;1.53;0.60;;;25.80;65.30;;;;;;5049996;28;20439;-63
2022/06/27 02:13:47;;;;;;;1.73;0.60;;;25.60;65.20;;;;;;5049576;28;20517;-63
2022/06/27 02:16:16;;;;;;;0.50;0.40;;;25.60;65.20;;;;;;5050072;28;20176;-63
2022/06/27 02:18:42;;;;;;;0.50;0.40;;;25.60;65.20;;;;;;5047617;28;20227;-63
2022/06/27 02:21:12;;;;;;;0.60;0.40;;;25.80;65.30;;;;;;5030331;28;20418;-63
2022/06/27 02:23:39;;;;;;;0.60;0.40;;;25.50;65.10;;;;;;5029773;28;20747;-63
2022/06/27 02:26:07;;;;;;;0.50;0.40;;;25.60;65.20;;;;;;5037678;28;20490;-63
2022/06/27 02:28:33;;;;;;;0.50;0.40;;;25.50;65.10;;;;;;5049139;28;20749;-63
2022/06/27 02:31:00;;;;;;;4.57;0.50;;;25.40;65.00;;;;;;5049747;28;20411;-63
2022/06/27 02:33:33;;;;;;;1.23;0.60;;;25.60;65.10;;;;;;5049675;28;20537;-63
2022/06/27 02:36:01;;;;;;;0.60;0.60;;;25.60;65.00;;;;;;5049740;28;20469;-63
2022/06/27 02:38:28;;;;;;;0.83;0.50;;;25.80;65.20;;;;;;5031868;28;20506;-63
2022/06/27 02:40:54;;;;;;;0.60;0.40;;;25.60;64.90;;;;;;5049495;28;20430;-63
2022/06/27 02:43:21;;;;;;;0.50;0.43;;;25.60;65.00;;;;;;5049866;28;20874;-63
2022/06/27 02:45:48;;;;;;;0.50;0.30;;;25.60;64.90;;;;;;5049413;28;20459;-63
2022/06/27 02:48:18;;;;;;;0.50;0.50;;;25.60;64.80;;;;;;5049589;28;20517;-63
2022/06/27 02:50:51;;;;;;;0.50;0.40;;;25.70;64.90;;;;;;5031345;28;20427;-63
2022/06/27 02:53:23;;;;;;;0.60;0.33;;;25.60;64.80;;;;;;5029483;28;20451;-63
2022/06/27 02:55:53;;;;;;;0.80;0.73;;;25.60;64.70;;;;;;5029611;28;20466;-63
2022/06/27 02:58:35;;;;;;;1.07;0.50;;;25.60;64.80;;;;;;5043913;28;20660;-63
2022/06/27 03:01:02;;;;;;;0.50;0.40;;;25.60;64.60;;;;;;5049515;28;20407;-63
2022/06/27 03:03:31;;;;;;;0.50;0.40;;;25.70;64.70;;;;;;5047012;28;20588;-63
2022/06/27 03:06:05;;;;;;;0.50;0.50;;;25.40;64.40;;;;;;5049426;28;20966;-63
2022/06/27 03:08:41;;;;;;;1.23;0.40;;;25.60;64.50;;;;;;5033543;28;20429;-63
2022/06/27 03:11:07;;;;;;;0.50;0.40;;;25.60;64.50;;;;;;5030169;28;20815;-63
2022/06/27 03:13:33;;;;;;;0.73;0.40;;;25.40;64.50;;;;;;5029426;28;20440;-63
2022/06/27 03:15:59;;;;;;;0.50;0.40;;;25.40;64.40;;;;;;5033504;28;20555;-63
2022/06/27 03:18:25;;;;;;;0.50;0.40;;;25.70;64.60;;;;;;5045758;28;20742;-63
2022/06/27 03:20:50;;;;;;;0.50;0.43;;;25.60;64.60;;;;;;5052962;28;20415;-63
2022/06/27 03:23:16;;;;;;;3.03;0.40;;;25.40;64.60;;;;;;5053185;28;20188;-63
2022/06/27 03:25:42;;;;;;;0.60;0.40;;;25.60;64.70;;;;;;5054078;28;20180;-63
2022/06/27 03:28:08;;;;;;;0.60;0.40;;;25.60;64.50;;;;;;5055145;28;20509;-62
2022/06/27 03:30:33;;;;;;;0.50;0.40;;;25.60;64.60;;;;;;5051835;28;20692;-63
2022/06/27 03:32:59;;;;;;;0.50;0.30;;;25.70;64.80;;;;;;5047417;28;20518;-63
2022/06/27 03:35:25;;;;;;;0.57;0.40;;;25.40;64.70;;;;;;5032070;28;20259;-63
2022/06/27 03:37:51;;;;;;;0.50;0.40;;;26.10;65.00;;;;;;5032136;28;20499;-63
2022/06/27 03:40:17;;;;;;;0.80;0.50;;;25.40;64.40;;;;;;5036645;28;20530;-63
2022/06/27 03:42:42;;;;;;;0.60;0.57;;;25.70;64.70;;;;;;5049049;28;20519;-63
2022/06/27 03:45:08;;;;;;;0.70;0.40;;;25.50;65.20;;;;;;5039625;28;20188;-63
2022/06/27 03:47:46;;;;;;;0.53;0.53;;;25.60;64.60;;;;;;5051517;28;20267;-63
2022/06/27 03:50:13;;;;;;;0.80;0.47;;;27.20;65.90;;;;;;5045734;28;20619;-63
2022/06/27 03:52:39;;;;;;;3.20;0.50;;;25.50;64.70;;;;;;5051008;28;20497;-63
2022/06/27 03:55:07;;;;;;;1.40;0.60;;;25.50;64.70;;;;;;5051431;28;20463;-63
2022/06/27 03:57:34;;;;;;;0.50;0.40;;;25.50;64.80;;;;;;5051085;28;20475;-63
2022/06/27 04:00:00;;;;;;;0.60;0.50;;;25.70;65.00;;;;;;5051443;28;20938;-63
2022/06/27 04:02:27;;;;;;;0.50;0.40;;;25.50;64.70;;;;;;5049977;28;20488;-63
2022/06/27 04:04:53;;;;;;;0.50;0.30;;;26.10;65.20;;;;;;5047168;28;20184;-63
2022/06/27 04:07:18;;;;;;;0.50;0.40;;;25.70;65.00;;;;;;5051425;28;20414;-63
2022/06/27 04:09:44;;;;;;;0.50;0.40;;;25.50;64.80;;;;;;5042830;28;20241;-63
2022/06/27 04:12:10;;;;;;;0.50;0.33;;;25.70;65.10;;;;;;5031292;28;20348;-63
2022/06/27 04:14:36;;;;;;;0.47;0.30;;;25.50;65.00;;;;;;5031081;28;20211;-63
2022/06/27 04:17:03;;;;;;;1.80;0.50;;;25.70;65.20;;;;;;5050505;28;20422;-63
2022/06/27 04:19:28;;;;;;;0.60;0.40;;;25.50;65.20;;;;;;5034396;28;20177;-63
2022/06/27 04:21:54;;;;;;;0.50;0.50;;;25.20;83.80;;;;;;5031212;28;20438;-63
2022/06/27 04:24:20;;;;;;;0.70;0.40;;;25.70;65.50;;;;;;5032059;28;20173;-63
2022/06/27 04:26:46;;;;;;;0.50;0.40;;;25.50;65.30;;;;;;5040430;28;20626;-63
2022/06/27 04:29:12;;;;;;;0.53;0.40;;;25.50;65.30;;;;;;5031378;28;20546;-63
2022/06/27 04:31:37;;;;;;;0.90;0.50;;;25.40;78.20;;;;;;5029761;28;20181;-63
2022/06/27 04:34:04;;;;;;;0.70;0.60;;;25.70;65.60;;;;;;5029887;28;20209;-63
2022/06/27 04:36:30;;;;;;;2.13;0.50;;;25.40;65.30;;;;;;5031114;28;20681;-63
2022/06/27 04:38:57;;;;;;;0.60;0.60;;;25.60;65.50;;;;;;5031042;28;20481;-63
2022/06/27 04:41:25;;;;;;;0.83;0.50;;;25.40;65.30;;;;;;5030736;28;20477;-63
2022/06/27 04:43:52;;;;;;;0.80;0.40;;;25.40;65.30;;;;;;5030423;28;20463;-63
2022/06/27 04:46:18;;;;;;;0.77;0.50;;;25.60;65.50;;;;;;5030635;28;20443;-63
2022/06/27 04:48:45;;;;;;;0.50;0.50;;;25.70;65.50;;;;;;5030291;28;20407;-63
2022/06/27 04:51:13;;;;;;;0.53;0.50;;;25.40;65.30;;;;;;5030785;28;20837;-63
2022/06/27 04:53:38;;;;;;;1.33;0.70;;;25.60;65.40;;;;;;5030388;28;20849;-63
2022/06/27 04:56:05;;;;;;;0.60;0.40;;;25.40;65.30;;;;;;5030609;28;20474;-63
2022/06/27 04:58:31;;;;;;;0.50;0.37;;;25.60;65.40;;;;;;5030592;28;20184;-63
2022/06/27 05:00:56;;;;;;;1.07;0.77;;;25.60;65.30;;;;;;5030404;28;20774;-63
2022/06/27 05:03:23;;;;;;;0.50;0.40;;;25.40;65.20;;;;;;5030708;28;20327;-63
2022/06/27 05:05:50;;;;;;;0.50;0.40;;;25.50;65.30;;;;;;5037201;28;20569;-63
2022/06/27 05:08:16;;;;;;;2.20;0.77;;;25.70;65.40;;;;;;5050225;28;20465;-63
2022/06/27 05:10:42;;;;;;;0.50;0.43;;;25.50;65.30;;;;;;5046467;28;20916;-63
2022/06/27 05:13:08;;;;;;;0.60;0.53;;;24.80;64.90;;;;;;5050029;28;20445;-63
2022/06/27 05:15:34;;;;;;;0.70;0.40;;;25.70;65.50;;;;;;5050184;28;20465;-63
2022/06/27 05:17:59;;;;;;;0.50;0.40;;;25.60;65.30;;;;;;5046883;28;20181;-63
2022/06/27 05:20:25;;;;;;;0.60;0.60;;;25.50;65.30;;;;;;5042304;28;20175;-63
2022/06/27 05:22:51;;;;;;;0.50;0.40;;;25.50;65.30;;;;;;5050189;28;20703;-63
2022/06/27 05:25:16;;;;;;;0.50;0.40;;;25.60;65.40;;;;;;5049961;28;20562;-63
2022/06/27 05:27:42;;;;;;;0.53;0.53;;;25.60;65.40;;;;;;5038928;28;20504;-63
2022/06/27 05:30:08;;;;;;;0.40;0.30;;;25.40;65.20;;;;;;5049833;28;20198;-63
2022/06/27 05:32:34;;;;;;;0.60;0.47;;;25.60;65.40;;;;;;5049296;28;20192;-63
2022/06/27 05:34:59;;;;;;;0.50;0.50;;;25.60;65.40;;;;;;5049626;28;20469;-63
2022/06/27 05:37:26;;;;;;;0.50;0.40;;;25.70;65.50;;;;;;5049880;28;20659;-63
2022/06/27 05:39:52;;;;;;;0.60;0.40;;;25.60;65.40;;;;;;5049776;28;20185;-63
2022/06/27 05:42:18;;;;;;;0.50;0.40;;;25.40;65.30;;;;;;5048720;28;20987;-63
2022/06/27 05:44:43;;;;;;;1.67;0.50;;;25.60;65.50;;;;;;5049678;28;20291;-63
2022/06/27 05:47:09;;;;;;;2.60;0.50;;;25.60;65.40;;;;;;5049447;28;20774;-63
2022/06/27 05:49:37;;;;;;;0.67;0.43;;;25.50;65.40;;;;;;5050020;28;20184;-63
2022/06/27 05:52:03;;;;;;;0.70;0.60;;;25.50;65.40;;;;;;5049761;28;20204;-63
2022/06/27 05:54:29;;;;;;;0.50;0.40;;;25.60;65.40;;;;;;5049853;28;20473;-63
2022/06/27 05:56:56;;;;;;;0.50;0.40;;;25.50;65.40;;;;;;5049831;28;20407;-63
2022/06/27 05:59:23;;;;;;;0.63;0.40;;;25.50;65.40;;;;;;5049540;28;20988;-63
2022/06/27 06:01:51;;;;;;;0.50;0.50;;;25.60;83.10;;;;;;5049761;28;20402;-63
2022/06/27 06:04:17;;;;;;;0.50;0.40;;;25.30;65.20;;;;;;5041883;28;20879;-63
2022/06/27 06:06:43;;;;;;;0.60;0.40;;;25.50;65.40;;;;;;5048040;28;20450;-63
2022/06/27 06:09:10;;;;;;;0.50;0.40;;;25.40;65.30;;;;;;5049569;28;20823;-63
2022/06/27 06:11:36;;;;;;;0.70;0.60;;;;;;;;;;5045859;28;20450;-63
2022/06/27 06:14:04;;;;;;;0.83;0.50;;;26.10;65.50;;;;;;5042733;28;20502;-63
2022/06/27 06:16:30;;;;;;;1.77;0.50;;;25.60;65.50;;;;;;5049207;28;20726;-63
2022/06/27 06:18:57;;;;;;;0.87;0.40;;;25.60;65.50;;;;;;5042548;28;20432;-63
2022/06/27 06:21:23;;;;;;;0.57;0.50;;;25.60;65.60;;;;;;5044904;28;20184;-63
2022/06/27 06:23:51;;;;;;;0.50;0.40;;;25.50;65.40;;;;;;5039666;28;20791;-63
2022/06/27 06:26:17;;;;;;;0.50;0.40;;;25.60;65.50;;;;;;5038872;28;20433;-63
2022/06/27 06:28:44;;;;;;;0.50;0.50;;;25.50;65.40;;;;;;5049435;28;20922;-63
2022/06/27 06:31:10;;;;;;;0.60;0.53;;;25.50;65.50;;;;;;5049586;28;20422;-63
2022/06/27 06:33:36;;;;;;;0.50;0.50;;;25.60;65.60;;;;;;5049143;28;20923;-63
2022/06/27 06:36:02;;;;;;;0.80;0.53;;;25.60;65.60;;;;;;5049100;28;20458;-63
2022/06/27 06:38:29;;;;;;;0.57;0.43;;;25.60;65.60;;;;;;5046129;28;20208;-63
2022/06/27 06:40:55;;;;;;;0.50;0.43;;;25.60;65.60;;;;;;5048823;28;20527;-63
2022/06/27 06:43:20;;;;;;;0.67;0.53;;;25.60;65.70;;;;;;5033837;28;20459;-63
2022/06/27 06:45:46;;;;;;;1.00;0.40;;;25.50;65.50;;;;;;5034261;28;20192;-63
2022/06/27 06:48:17;;;;;;;0.90;0.50;;;25.50;65.40;;;;;;5030526;28;20192;-63
2022/06/27 06:50:43;;;;;;;0.60;0.60;;;25.60;65.50;;;;;;5042208;28;20279;-63
2022/06/27 06:53:08;;;;;;;3.00;0.70;;;25.60;65.50;;;;;;5042876;28;20478;-63
2022/06/27 06:55:34;;;;;;;0.50;0.50;;;25.50;65.50;;;;;;5050673;28;20664;-63
2022/06/27 06:57:59;;;;;;;0.70;0.47;;;25.60;65.60;;;;;;5052621;28;20176;-63
2022/06/27 07:00:25;;;;;;;0.63;0.63;;;25.40;65.50;;;;;;5052561;28;20172;-63
2022/06/27 07:02:52;;;;;;;0.80;0.60;;;25.60;65.70;;;;;;5050497;28;20205;-63
2022/06/27 07:05:19;;;;;;;0.57;0.57;;;25.70;65.90;;;;;;5042734;28;20263;-63
2022/06/27 07:07:47;;;;;;;1.10;0.60;;;25.50;65.70;;;;;;5046247;28;20419;-63
2022/06/27 07:10:13;;;;;;;0.70;0.70;;;25.60;65.80;;;;;;5041772;28;20447;-63
2022/06/27 07:12:41;;;;;;;0.80;0.63;;;25.50;65.80;;;;;;5038528;28;20482;-63
2022/06/27 07:15:10;;;;;;;0.70;0.50;;;25.50;65.80;;;;;;5047095;28;20859;-63
2022/06/27 07:17:45;;;;;;;1.33;0.70;;;26.20;66.30;;;;;;5044948;28;20530;-63
2022/06/27 07:20:12;;;;;;;1.00;0.53;;;25.50;65.70;;;;;;5047882;28;20516;-63
2022/06/27 07:22:39;;;;;;;0.80;0.67;;;25.50;65.80;;;;;;5052291;28;20442;-63
2022/06/27 07:25:05;;;;;;;1.93;0.50;;;25.60;66.00;;;;;;5052566;28;20446;-63
2022/06/27 07:27:32;;;;;;;0.60;0.53;;;25.50;65.80;;;;;;5053329;28;20544;-63
2022/06/27 07:29:59;;;;;;;1.43;0.60;;;25.60;65.90;;;;;;5052713;28;20422;-63
2022/06/27 07:32:25;;;;;;;1.23;0.70;;;25.60;66.00;;;;;;5034331;28;20466;-63
2022/06/27 07:34:51;;;;;;;0.70;0.70;;;25.50;66.00;;;;;;5037942;28;20894;-63
2022/06/27 07:37:18;;;;;;;0.67;0.67;;;25.30;65.90;;;;;;5040580;28;20926;-63
2022/06/27 07:39:43;;;;;;;1.00;1.00;;;25.50;66.00;;;;;;5049027;28;20426;-63
2022/06/27 07:42:09;;;;;;;0.80;0.80;;;25.50;66.10;;;;;;5052072;28;20427;-63
2022/06/27 07:44:35;;;;;;;0.87;0.80;;;25.50;66.10;;;;;;5051938;28;20696;-63
2022/06/27 07:47:03;;;;;;;0.70;0.70;;;25.60;66.10;;;;;;5052242;28;20204;-63
2022/06/27 07:49:30;;;;;;;1.53;1.10;;;25.50;66.20;;;;;;5051910;28;20176;-63
2022/06/27 07:51:55;;;;;;;0.63;0.63;;;25.60;84.90;;;;;;5045738;28;20428;-63
2022/06/27 07:54:21;;;;;;;0.90;0.70;;;25.50;66.30;;;;;;5039336;28;20459;-63
2022/06/27 07:56:47;;;;;;;1.20;1.10;;;25.40;66.00;;;;;;5032572;28;20279;-63
2022/06/27 07:59:14;;;;;;;1.10;1.00;;;25.60;66.20;;;;;;5033841;28;20184;-63
2022/06/27 08:01:40;;;;;;;1.10;1.00;;;25.60;80.70;;;;;;5033732;28;20176;-63
2022/06/27 08:04:07;;;;;;;1.23;0.87;;;25.90;66.50;;;;;;5035500;28;20518;-63
2022/06/27 08:06:33;;;;;;;1.20;1.10;;;25.60;66.30;;;;;;5051116;28;20417;-63
2022/06/27 08:09:03;;;;;;;1.27;0.80;;;25.50;66.40;;;;;;5041995;28;20770;-63
2022/06/27 08:11:31;;;;;;;5.93;1.27;;;25.50;66.40;;;;;;5031185;28;20212;-63
2022/06/27 08:14:02;;;;;;;0.90;0.90;;;25.50;66.60;;;;;;5043172;28;20419;-63
2022/06/27 08:16:28;;;;;;;2.37;1.47;;;25.40;66.50;;;;;;5033548;28;20501;-63
2022/06/27 08:18:55;;;;;;;1.20;1.20;;;25.50;66.50;;;;;;5035850;28;20726;-63
2022/06/27 08:21:25;;;;;;;1.30;1.20;;;25.50;67.30;;;;;;5035685;28;20778;-63
2022/06/27 08:24:01;;;;;;;1.10;1.00;;;25.30;66.50;;;;;;5030514;28;20468;-63
2022/06/27 08:26:28;;;;;;;1.13;1.00;;;25.50;66.50;;;;;;5036517;28;20410;-63
2022/06/27 08:28:54;;;;;;;2.97;1.37;;;25.50;66.70;;;;;;5033551;28;20893;-63
2022/06/27 08:31:20;;;;;;;1.53;1.13;;;25.50;66.70;;;;;;5050524;28;20468;-63
2022/06/27 08:33:47;;;;;;;1.90;1.47;;;25.40;66.50;;;;;;5034864;28;20435;-63
2022/06/27 08:36:14;;;;;;;1.30;1.20;;;25.70;66.80;;;;;;5036030;28;20459;-63
2022/06/27 08:38:42;;;;;;;1.60;1.60;;;26.00;67.00;;;;;;5037348;28;20410;-63
2022/06/27 08:41:10;;;;;;;1.80;1.70;;;25.40;66.60;;;;;;5048674;28;20443;-63
2022/06/27 08:43:37;;;;;;;1.70;1.60;;;25.70;66.70;;;;;;5041974;28;20424;-63
2022/06/27 08:46:04;;;;;;;1.47;1.27;;;25.50;66.70;;;;;;5031946;28;20412;-63
2022/06/27 08:48:31;;;;;;;1.30;1.30;;;26.00;67.00;;;;;;5049996;28;21087;-63
2022/06/27 08:50:59;;;;;;;1.20;1.20;;;25.30;66.50;;;;;;5041463;28;20434;-63
2022/06/27 08:53:25;;;;;;;1.63;1.63;;;25.50;66.60;;;;;;5029784;28;20652;-62
2022/06/27 08:55:51;;;;;;;1.20;1.20;;;25.50;66.60;;;;;;5039834;28;20490;-63
2022/06/27 08:58:17;;;;;;;1.53;1.33;;;25.30;66.50;;;;;;5034391;28;20810;-63
2022/06/27 09:00:45;;;;;;;1.30;1.30;;;25.40;66.60;;;;;;5040418;28;20917;-63
2022/06/27 09:03:18;;;;;;;1.53;1.53;;;25.50;66.60;;;;;;5046046;28;20464;-63
2022/06/27 09:05:57;;;;;;;1.10;1.10;;;25.50;66.60;;;;;;5047055;28;20459;-63
2022/06/27 09:08:25;;;;;;;1.50;1.40;;;25.50;66.60;;;;;;5041175;28;20886;-63
2022/06/27 09:10:52;;;;;;;1.30;1.30;;;25.50;66.60;;;;;;5032411;28;20426;-63
2022/06/27 09:13:19;;;;;;;1.60;1.60;;;25.40;66.50;;;;;;5036421;28;20463;-63
2022/06/27 09:16:02;;;;;;;1.60;1.50;;;24.90;66.20;;;;;;5042725;28;20466;-63
2022/06/27 09:18:37;;;;;;;1.60;1.50;;;25.50;66.60;;;;;;5050025;28;20767;-63
2022/06/27 09:21:09;;;;;;;2.30;1.73;;;25.50;66.60;;;;;;5049939;28;20422;-63
2022/06/27 09:23:39;;;;;;;1.33;1.33;;;25.90;66.90;;;;;;5049971;28;20514;-63
2022/06/27 09:26:15;;;;;;;1.27;1.27;;;25.50;66.50;;;;;;5053951;28;20438;-63
2022/06/27 09:28:56;;;;;;;1.80;1.70;;;25.40;66.40;;;;;;5069923;28;20505;-63
2022/06/27 09:31:30;;;;;;;1.57;1.47;;;25.50;66.50;;;;;;5069645;28;20413;-63
2022/06/27 09:34:08;;;;;;;1.50;1.50;;;25.50;66.50;;;;;;5051441;28;20456;-63
2022/06/27 09:36:34;;;;;;;1.10;1.10;;;25.30;66.50;;;;;;5050150;28;20417;-63
2022/06/27 09:39:01;;;;;;;1.50;1.40;;;25.40;66.70;;;;;;5049791;28;20411;-63
2022/06/27 09:41:29;;;;;;;1.83;1.83;;;25.40;66.60;;;;;;5049818;28;20464;-63
2022/06/27 09:44:10;;;;;;;1.30;1.20;;;25.50;66.80;;;;;;5039348;28;20451;-63
2022/06/27 09:46:42;;;;;;;1.70;1.70;;;25.50;66.70;;;;;;5033035;28;20499;-63
2022/06/27 09:49:12;;;;;;;1.43;1.43;;;25.50;66.90;;;;;;5035729;28;20420;-63
2022/06/27 09:51:39;;;;;;;1.47;1.47;;;25.20;79.50;;;;;;5042049;28;20405;-63
2022/06/27 09:54:10;;;;;;;2.10;2.00;;;25.60;67.00;;;;;;5040976;28;20541;-63
2022/06/27 09:56:39;;;;;;;1.60;1.60;;;25.40;66.80;;;;;;5045701;28;20422;-63
2022/06/27 09:59:07;;;;;;;2.13;1.77;;;25.40;67.00;;;;;;5048004;28;20406;-63
2022/06/27 10:01:34;;;;;;;1.80;1.80;;;25.50;67.00;;;;;;5043678;28;20434;-63
2022/06/27 10:04:01;;;;;;;2.50;2.40;;;25.40;67.00;;;;;;5039476;28;20880;-63
2022/06/27 10:06:29;;;;;;;1.87;1.77;;;27.00;68.30;;;;;;5039981;28;20403;-63
2022/06/27 10:08:55;;;;;;;2.07;1.87;;;25.50;67.20;;;;;;5040949;28;20494;-63
2022/06/27 10:11:20;;;;;;;1.90;1.90;;;25.60;67.40;;;;;;5049008;28;20407;-64
2022/06/27 10:14:12;;;;;;;2.57;2.37;;;25.50;67.30;;;;;;5048808;28;20192;-64
2022/06/27 10:16:54;;;;;;;2.00;1.90;;;25.50;67.20;;;;;;5029276;28;20180;-63
2022/06/27 10:19:22;;;;;;;2.40;2.30;;;25.50;67.20;;;;;;5047297;28;20395;-64
2022/06/27 10:21:48;;;;;;;2.00;1.90;;;25.40;84.90;;;;;;5048847;28;20410;-63
2022/06/27 10:24:21;;;;;;;2.20;2.20;;;25.30;67.10;;;;;;5048703;28;20460;-63
2022/06/27 10:26:49;;;;;;;1.93;1.83;;;25.40;67.20;;;;;;5039280;28;20435;-63
2022/06/27 10:29:26;;;;;;;2.43;2.33;;;25.70;67.40;;;;;;5047499;28;20415;-63
2022/06/27 10:31:52;;;;;;;2.60;2.10;;;25.40;84.80;;;;;;5033049;28;20427;-63
2022/06/27 10:34:24;;;;;;;2.40;2.30;;;25.50;67.40;;;;;;5033614;28;20533;-63
2022/06/27 10:37:24;;;;;;;3.00;2.90;;;25.60;67.40;;;;;;5033333;28;20169;-63
2022/06/27 10:40:18;;;;;;;2.50;2.40;;;25.50;67.30;;;;;;5051999;28;20407;-64
2022/06/27 10:42:54;;;;;;;1.77;1.77;;;25.40;67.20;;;;;;5053040;28;20752;-63
2022/06/27 10:45:19;;;;;;;3.13;2.93;;;25.40;67.20;;;;;;5050226;28;20406;-63
2022/06/27 10:47:45;;;;;;;2.80;2.70;;;25.60;67.50;;;;;;5034134;28;20425;-63
2022/06/27 10:50:13;;;;;;;2.47;2.37;;;25.30;67.30;;;;;;5033672;28;20620;-63
2022/06/27 10:52:39;;;;;;;2.23;2.13;;;25.40;67.40;;;;;;5032219;28;20439;-64
2022/06/27 10:55:26;;;;;;;2.50;2.40;;;25.40;67.30;;;;;;5032532;28;20451;-63
2022/06/27 10:57:54;;;;;;;2.87;2.30;;;25.40;68.00;;;;;;5052370;28;20168;-63
2022/06/27 11:00:42;;;;;;;2.27;2.17;;;25.50;67.40;;;;;;5050889;28;20407;-63
2022/06/27 11:03:19;;;;;;;2.30;2.20;;;25.40;67.20;;;;;;5038367;28;20459;-63
2022/06/27 11:05:54;;;;;;;2.60;2.43;;;25.40;67.20;;;;;;5035451;28;20449;-64
2022/06/27 11:08:22;;;;;;;2.80;2.60;;;25.40;67.20;;;;;;5033556;28;20762;-63
2022/06/27 11:10:48;;;;;;;3.10;2.90;;;25.40;67.20;;;;;;5032777;28;20414;-64
2022/06/27 11:13:54;;;;;;;3.40;3.17;;;25.50;67.30;;;;;;5032251;28;20459;-63
2022/06/27 11:16:22;;;;;;;2.20;2.10;;;25.50;67.20;;;;;;5050534;28;20454;-63
2022/06/27 11:18:52;;;;;;;3.53;3.30;;;23.70;66.20;;;;;;5052644;28;20497;-63
2022/06/27 11:21:22;;;;;;;2.70;2.60;;;25.40;67.20;;;;;;5052024;28;20407;-63
2022/06/27 11:24:00;;;;;;;3.23;2.93;;;25.50;67.40;;;;;;5052142;28;20430;-64
2022/06/27 11:26:34;;;;;;;2.53;2.43;;;25.40;67.20;;;;;;5046194;28;20794;-64
2022/06/27 11:32:18;;;;;;;2.83;2.73;;;25.80;80.20;;;;;;5051771;28;20447;-64
2022/06/27 11:34:48;;;;;;;2.13;2.03;;;25.20;67.20;;;;;;5020489;28;20569;-64
2022/06/27 11:37:17;;;;;;;2.30;2.20;;;25.40;67.20;;;;;;5032127;28;20496;-63
2022/06/27 11:40:00;;;;;;;2.30;2.17;;;25.40;67.30;;;;;;5032102;28;20450;-64
2022/06/27 11:42:31;;;;;;;2.50;2.40;;;25.50;67.30;;;;;;5050307;28;20438;-64
2022/06/27 11:45:11;;;;;;;2.33;2.23;;;25.40;67.20;;;;;;5051264;28;20411;-64
2022/06/27 11:47:40;;;;;;;3.00;2.90;;;25.40;67.30;;;;;;5051277;28;20417;-64
2022/06/27 11:50:12;;;;;;;2.30;2.20;;;25.40;67.20;;;;;;5051092;28;20422;-63
2022/06/27 11:52:49;;;;;;;2.27;2.07;;;25.40;67.20;;;;;;5051176;28;20507;-64
2022/06/27 11:55:17;;;;;;;2.37;2.27;;;25.30;67.80;;;;;;5049784;28;20442;-64
2022/06/27 11:57:48;;;;;;;2.10;2.00;;;25.50;67.30;;;;;;5051230;28;20422;-64
2022/06/27 12:00:28;;;;;;;2.50;2.40;;;25.40;67.20;;;;;;5050926;28;20399;-62
2022/06/27 12:03:07;;;;;;;2.23;2.13;;;25.40;67.20;;;;;;5051212;28;20537;-64
2022/06/27 12:05:34;;;;;;;2.10;2.00;;;25.10;67.00;;;;;;5051258;28;20407;-64
2022/06/27 12:08:07;;;;;;;2.20;2.10;;;25.20;67.70;;;;;;5046439;28;20466;-64
2022/06/27 12:10:35;;;;;;;2.00;2.00;;;25.40;67.20;;;;;;5043673;28;20426;-63
2022/06/27 12:13:02;;;;;;;1.77;1.70;;;25.50;67.30;;;;;;5037296;28;20444;-63
2022/06/27 12:15:28;;;;;;;1.80;1.70;;;25.40;67.20;;;;;;5038804;28;20480;-63
2022/06/27 12:17:58;;;;;;;2.00;1.90;;;25.40;67.20;;;;;;5041746;28;20910;-63
2022/06/27 12:20:24;;;;;;;1.57;1.57;;;25.20;67.00;;;;;;5042537;28;20777;-63
2022/06/27 12:22:50;;;;;;;1.60;1.60;;;25.50;67.20;;;;;;5042442;28;20435;-63
2022/06/27 12:25:17;;;;;;;1.23;1.23;;;25.30;67.00;;;;;;5041969;28;20752;-63
2022/06/27 12:27:43;;;;;;;1.30;1.30;;;25.40;67.20;;;;;;5044453;28;20291;-63
2022/06/27 12:30:10;;;;;;;1.20;1.20;;;25.50;67.10;;;;;;5033030;28;20537;-64
2022/06/27 12:32:35;;;;;;;1.13;1.13;;;25.50;67.10;;;;;;5036976;28;20435;-63
2022/06/27 12:35:02;;;;;;;1.10;1.10;;;25.40;67.00;;;;;;5031989;28;20470;-63
2022/06/27 12:37:27;;;;;;;0.80;0.80;;;25.40;67.00;;;;;;5033147;28;20239;-64
2022/06/27 12:39:53;;;;;;;1.20;1.20;;;25.40;67.10;;;;;;5043586;28;20426;-64
2022/06/27 12:42:18;;;;;;;1.70;1.60;;;25.40;67.00;;;;;;5035405;28;20263;-63
2022/06/27 12:44:44;;;;;;;1.00;1.00;;;25.40;66.90;;;;;;5030906;28;20181;-63
2022/06/27 12:47:09;;;;;;;1.40;0.90;;;25.40;66.80;;;;;;5034328;28;20181;-64
2022/06/27 12:49:36;;;;;;;1.10;1.00;;;25.50;66.80;;;;;;5036932;28;20522;-63
2022/06/27 12:52:02;;;;;;;1.40;1.10;;;25.50;66.80;;;;;;5031650;28;20279;-63
2022/06/27 12:54:28;;;;;;;1.33;1.23;;;25.40;66.60;;;;;;5030751;28;20997;-64
2022/06/27 12:56:53;;;;;;;1.00;1.00;;;25.60;66.70;;;;;;5030955;28;20412;-64